sensor_id;sensor_type;location;lat;lon;timestamp;pressure;altitude;pressure_sealevel;temperature;humidity
63096;BME280;49184;55.596;37.770;2023-06-22T00:01:28;99828.47;;;14.41;54.70
63096;BME280;49184;55.596;37.770;2023-06-22T00:04:00;99823.31;;;14.30;54.90
63096;BME280;49184;55.596;37.770;2023-06-22T00:06:37;99797.91;;;14.16;55.37
63096;BME280;49184;55.596;37.770;2023-06-22T00:09:04;99791.09;;;14.14;55.27
63096;BME280;49184;55.596;37.770;2023-06-22T00:11:33;99831.69;;;14.25;55.01
63096;BME280;49184;55.596;37.770;2023-06-22T00:14:00;99838.16;;;14.29;55.12
63096;BME280;49184;55.596;37.770;2023-06-22T00:19:36;99846.75;;;14.19;54.94
63096;BME280;49184;55.596;37.770;2023-06-22T00:22:06;99805.34;;;13.98;55.11
63096;BME280;49184;55.596;37.770;2023-06-22T00:24:34;99825.09;;;14.09;56.05
63096;BME280;49184;55.596;37.770;2023-06-22T00:27:00;99835.56;;;14.07;56.03
63096;BME280;49184;55.596;37.770;2023-06-22T00:29:26;99813.13;;;13.88;55.93
63096;BME280;49184;55.596;37.770;2023-06-22T00:32:20;99850.47;;;14.06;55.84
63096;BME280;49184;55.596;37.770;2023-06-22T00:34:47;99852.91;;;14.07;55.82
63096;BME280;49184;55.596;37.770;2023-06-22T00:37:13;99853.38;;;14.09;56.22
63096;BME280;49184;55.596;37.770;2023-06-22T00:39:39;99835.91;;;13.97;56.04
63096;BME280;49184;55.596;37.770;2023-06-22T00:42:05;99863.09;;;14.16;55.93
63096;BME280;49184;55.596;37.770;2023-06-22T00:44:36;99838.81;;;14.00;55.46
63096;BME280;49184;55.596;37.770;2023-06-22T00:50:20;99859.53;;;14.06;56.26
63096;BME280;49184;55.596;37.770;2023-06-22T00:52:53;99822.34;;;13.74;57.12
63096;BME280;49184;55.596;37.770;2023-06-22T00:55:23;99852.88;;;13.90;57.17
63096;BME280;49184;55.596;37.770;2023-06-22T00:57:49;99853.22;;;13.89;57.01
63096;BME280;49184;55.596;37.770;2023-06-22T01:00:16;99857.88;;;13.79;57.65
63096;BME280;49184;55.596;37.770;2023-06-22T01:02:46;99837.16;;;13.56;58.48
63096;BME280;49184;55.596;37.770;2023-06-22T01:05:22;99850.41;;;13.62;58.43
63096;BME280;49184;55.596;37.770;2023-06-22T01:10:48;99840.38;;;13.49;59.04
63096;BME280;49184;55.596;37.770;2023-06-22T01:15:51;99861.88;;;13.56;59.32
63096;BME280;49184;55.596;37.770;2023-06-22T01:18:36;99860.25;;;13.55;59.56
63096;BME280;49184;55.596;37.770;2023-06-22T01:21:06;99846.97;;;13.39;59.92
63096;BME280;49184;55.596;37.770;2023-06-22T01:29:59;99832.22;;;13.27;60.47
63096;BME280;49184;55.596;37.770;2023-06-22T01:32:35;99830.28;;;13.27;60.17
63096;BME280;49184;55.596;37.770;2023-06-22T01:35:07;99865.59;;;13.60;59.50
63096;BME280;49184;55.596;37.770;2023-06-22T01:37:49;99873.06;;;13.68;58.99
63096;BME280;49184;55.596;37.770;2023-06-22T01:40:29;99857.72;;;13.76;58.46
63096;BME280;49184;55.596;37.770;2023-06-22T01:43:04;99854.31;;;13.70;58.57
63096;BME280;49184;55.596;37.770;2023-06-22T01:45:36;99831.31;;;13.57;58.97
63096;BME280;49184;55.596;37.770;2023-06-22T01:48:05;99845.56;;;13.59;59.27
63096;BME280;49184;55.596;37.770;2023-06-22T01:50:31;99859.63;;;13.67;59.55
63096;BME280;49184;55.596;37.770;2023-06-22T01:53:00;99862.06;;;13.68;59.61
63096;BME280;49184;55.596;37.770;2023-06-22T01:55:26;99858.03;;;13.66;60.17
63096;BME280;49184;55.596;37.770;2023-06-22T01:57:52;99858.81;;;13.66;59.91
63096;BME280;49184;55.596;37.770;2023-06-22T02:00:20;99839.75;;;13.61;59.34
63096;BME280;49184;55.596;37.770;2023-06-22T02:02:56;99831.84;;;13.68;59.31
63096;BME280;49184;55.596;37.770;2023-06-22T02:05:28;99851.59;;;13.88;59.28
63096;BME280;49184;55.596;37.770;2023-06-22T02:08:06;99874.38;;;13.97;59.98
63096;BME280;49184;55.596;37.770;2023-06-22T02:10:37;99867.13;;;14.01;59.22
63096;BME280;49184;55.596;37.770;2023-06-22T02:13:13;99837.03;;;13.87;59.43
63096;BME280;49184;55.596;37.770;2023-06-22T02:19:30;99871.50;;;14.19;58.65
63096;BME280;49184;55.596;37.770;2023-06-22T02:21:58;99830.25;;;14.02;58.79
63096;BME280;49184;55.596;37.770;2023-06-22T02:24:24;99792.59;;;13.85;58.38
63096;BME280;49184;55.596;37.770;2023-06-22T02:26:50;99855.00;;;14.28;59.25
63096;BME280;49184;55.596;37.770;2023-06-22T02:29:16;99833.31;;;14.26;58.06
63096;BME280;49184;55.596;37.770;2023-06-22T02:31:43;99857.88;;;14.49;58.08
63096;BME280;49184;55.596;37.770;2023-06-22T02:34:09;99822.47;;;14.39;57.85
63096;BME280;49184;55.596;37.770;2023-06-22T02:36:35;99842.53;;;14.56;58.50
63096;BME280;49184;55.596;37.770;2023-06-22T02:39:02;99838.63;;;14.49;58.32
63096;BME280;49184;55.596;37.770;2023-06-22T02:41:29;99790.94;;;14.27;58.32
63096;BME280;49184;55.596;37.770;2023-06-22T02:43:56;99819.91;;;14.51;58.58
63096;BME280;49184;55.596;37.770;2023-06-22T02:46:22;99789.63;;;14.33;58.62
63096;BME280;49184;55.596;37.770;2023-06-22T02:48:52;99806.28;;;14.54;58.50
63096;BME280;49184;55.596;37.770;2023-06-22T02:51:18;99810.44;;;14.69;58.34
63096;BME280;49184;55.596;37.770;2023-06-22T02:53:44;99824.84;;;14.84;58.62
63096;BME280;49184;55.596;37.770;2023-06-22T02:56:12;99813.19;;;14.78;58.84
63096;BME280;49184;55.596;37.770;2023-06-22T02:58:38;99832.25;;;14.92;58.96
63096;BME280;49184;55.596;37.770;2023-06-22T03:01:08;99787.78;;;14.72;58.91
63096;BME280;49184;55.596;37.770;2023-06-22T03:03:36;99807.47;;;14.92;58.36
63096;BME280;49184;55.596;37.770;2023-06-22T03:06:12;99791.81;;;14.84;58.20
63096;BME280;49184;55.596;37.770;2023-06-22T03:08:43;99819.06;;;15.06;57.99
63096;BME280;49184;55.596;37.770;2023-06-22T03:11:10;99827.25;;;15.23;57.06
63096;BME280;49184;55.596;37.770;2023-06-22T03:13:36;99818.28;;;15.35;56.80
63096;BME280;49184;55.596;37.770;2023-06-22T03:16:02;99805.50;;;15.31;57.04
63096;BME280;49184;55.596;37.770;2023-06-22T03:18:29;99819.94;;;15.57;56.94
63096;BME280;49184;55.596;37.770;2023-06-22T03:20:55;99800.16;;;15.55;56.35
63096;BME280;49184;55.596;37.770;2023-06-22T03:23:21;99817.09;;;15.74;56.01
63096;BME280;49184;55.596;37.770;2023-06-22T03:25:48;99815.09;;;15.84;55.89
63096;BME280;49184;55.596;37.770;2023-06-22T03:28:17;99797.25;;;15.81;55.65
63096;BME280;49184;55.596;37.770;2023-06-22T03:30:46;99819.16;;;15.98;54.02
63096;BME280;49184;55.596;37.770;2023-06-22T03:33:22;99770.03;;;15.80;52.39
63096;BME280;49184;55.596;37.770;2023-06-22T03:35:57;99777.91;;;15.90;51.74
63096;BME280;49184;55.596;37.770;2023-06-22T03:38:23;99793.63;;;16.10;51.73
63096;BME280;49184;55.596;37.770;2023-06-22T03:40:51;99803.69;;;16.27;50.61
63096;BME280;49184;55.596;37.770;2023-06-22T03:43:19;99782.97;;;16.21;50.67
63096;BME280;49184;55.596;37.770;2023-06-22T03:45:45;99784.50;;;16.31;51.38
63096;BME280;49184;55.596;37.770;2023-06-22T03:48:12;99802.28;;;16.54;50.91
63096;BME280;49184;55.596;37.770;2023-06-22T03:50:38;99796.19;;;16.61;50.94
63096;BME280;49184;55.596;37.770;2023-06-22T03:53:04;99793.56;;;16.64;50.43
63096;BME280;49184;55.596;37.770;2023-06-22T03:55:30;99793.63;;;16.77;50.32
63096;BME280;49184;55.596;37.770;2023-06-22T03:58:12;99766.53;;;16.70;51.59
63096;BME280;49184;55.596;37.770;2023-06-22T04:00:37;99771.53;;;16.89;51.74
63096;BME280;49184;55.596;37.770;2023-06-22T04:03:05;99770.72;;;17.01;51.54
63096;BME280;49184;55.596;37.770;2023-06-22T04:05:34;99774.78;;;17.16;51.40
63096;BME280;49184;55.596;37.770;2023-06-22T04:08:03;99730.69;;;16.95;49.61
63096;BME280;49184;55.596;37.770;2023-06-22T04:10:33;99716.53;;;16.96;48.74
63096;BME280;49184;55.596;37.770;2023-06-22T04:12:59;99765.53;;;17.36;50.04
63096;BME280;49184;55.596;37.770;2023-06-22T04:15:25;99757.94;;;17.33;48.35
63096;BME280;49184;55.596;37.770;2023-06-22T04:18:30;99780.34;;;17.68;48.37
63096;BME280;49184;55.596;37.770;2023-06-22T04:20:56;99739.25;;;17.54;47.83
63096;BME280;49184;55.596;37.770;2023-06-22T04:23:22;99759.00;;;17.81;48.05
63096;BME280;49184;55.596;37.770;2023-06-22T04:26:13;99778.84;;;18.11;47.22
63096;BME280;49184;55.596;37.770;2023-06-22T04:28:50;99743.75;;;17.99;47.46
63096;BME280;49184;55.596;37.770;2023-06-22T04:31:42;99748.25;;;18.20;46.77
63096;BME280;49184;55.596;37.770;2023-06-22T04:37:39;99757.25;;;18.45;46.32
63096;BME280;49184;55.596;37.770;2023-06-22T04:40:06;99770.13;;;18.69;46.38
63096;BME280;49184;55.596;37.770;2023-06-22T04:42:34;99743.75;;;18.59;46.54
63096;BME280;49184;55.596;37.770;2023-06-22T04:45:01;99769.63;;;18.95;46.74
63096;BME280;49184;55.596;37.770;2023-06-22T04:48:12;99730.94;;;18.83;46.06
63096;BME280;49184;55.596;37.770;2023-06-22T04:50:42;99719.69;;;18.91;46.10
63096;BME280;49184;55.596;37.770;2023-06-22T04:53:08;99758.06;;;19.24;46.20
63096;BME280;49184;55.596;37.770;2023-06-22T04:55:36;99736.63;;;19.21;45.97
63096;BME280;49184;55.596;37.770;2023-06-22T04:58:05;99758.47;;;19.42;45.15
63096;BME280;49184;55.596;37.770;2023-06-22T05:00:32;99756.31;;;19.52;45.11
63096;BME280;49184;55.596;37.770;2023-06-22T05:02:59;99768.00;;;19.61;44.67
63096;BME280;49184;55.596;37.770;2023-06-22T05:05:29;99741.88;;;19.62;45.14
63096;BME280;49184;55.596;37.770;2023-06-22T05:08:05;99760.88;;;19.79;43.90
63096;BME280;49184;55.596;37.770;2023-06-22T05:10:33;99758.31;;;19.90;44.23
63096;BME280;49184;55.596;37.770;2023-06-22T05:12:59;99732.47;;;19.86;41.55
63096;BME280;49184;55.596;37.770;2023-06-22T05:15:25;99739.22;;;20.04;42.48
63096;BME280;49184;55.596;37.770;2023-06-22T05:18:20;99764.31;;;20.31;42.73
63096;BME280;49184;55.596;37.770;2023-06-22T05:21:13;99748.38;;;20.28;41.26
63096;BME280;49184;55.596;37.770;2023-06-22T05:23:39;99728.25;;;20.11;40.23
63096;BME280;49184;55.596;37.770;2023-06-22T05:26:05;99746.56;;;20.16;40.61
63096;BME280;49184;55.596;37.770;2023-06-22T05:28:35;99757.50;;;20.28;40.71
63096;BME280;49184;55.596;37.770;2023-06-22T05:31:01;99716.22;;;20.04;40.74
63096;BME280;49184;55.596;37.770;2023-06-22T05:33:53;99750.66;;;20.22;40.33
63096;BME280;49184;55.596;37.770;2023-06-22T05:36:20;99735.91;;;20.18;40.41
63096;BME280;49184;55.596;37.770;2023-06-22T05:38:57;99752.81;;;20.32;40.02
63096;BME280;49184;55.596;37.770;2023-06-22T05:41:24;99752.03;;;20.32;40.18
63096;BME280;49184;55.596;37.770;2023-06-22T05:43:50;99760.53;;;20.42;40.29
63096;BME280;49184;55.596;37.770;2023-06-22T05:46:16;99746.13;;;20.33;38.12
63096;BME280;49184;55.596;37.770;2023-06-22T05:48:42;99749.41;;;20.62;38.81
63096;BME280;49184;55.596;37.770;2023-06-22T05:51:11;99726.63;;;20.53;37.93
63096;BME280;49184;55.596;37.770;2023-06-22T05:53:37;99722.44;;;20.62;37.99
63096;BME280;49184;55.596;37.770;2023-06-22T05:56:03;99717.84;;;20.70;37.48
63096;BME280;49184;55.596;37.770;2023-06-22T05:58:29;99730.03;;;20.88;37.71
63096;BME280;49184;55.596;37.770;2023-06-22T06:00:55;99738.31;;;21.11;38.14
63096;BME280;49184;55.596;37.770;2023-06-22T06:03:21;99734.31;;;21.09;37.27
63096;BME280;49184;55.596;37.770;2023-06-22T06:05:58;99751.34;;;21.30;36.70
63096;BME280;49184;55.596;37.770;2023-06-22T06:08:25;99719.91;;;21.26;38.77
63096;BME280;49184;55.596;37.770;2023-06-22T06:11:17;99745.28;;;21.51;37.90
63096;BME280;49184;55.596;37.770;2023-06-22T06:13:46;99730.94;;;21.46;37.04
63096;BME280;49184;55.596;37.770;2023-06-22T06:16:12;99727.81;;;21.51;36.29
63096;BME280;49184;55.596;37.770;2023-06-22T06:18:41;99721.94;;;21.56;37.06
63096;BME280;49184;55.596;37.770;2023-06-22T06:21:07;99710.81;;;21.56;35.75
63096;BME280;49184;55.596;37.770;2023-06-22T06:23:33;99730.50;;;21.74;36.09
63096;BME280;49184;55.596;37.770;2023-06-22T06:26:49;99696.28;;;21.70;35.47
63096;BME280;49184;55.596;37.770;2023-06-22T06:29:19;99699.56;;;21.79;35.74
63096;BME280;49184;55.596;37.770;2023-06-22T06:31:48;99701.25;;;21.87;35.73
63096;BME280;49184;55.596;37.770;2023-06-22T06:34:14;99710.66;;;22.09;35.71
63096;BME280;49184;55.596;37.770;2023-06-22T06:36:49;99684.31;;;22.03;36.22
63096;BME280;49184;55.596;37.770;2023-06-22T06:39:18;99700.44;;;22.20;35.97
63096;BME280;49184;55.596;37.770;2023-06-22T06:41:46;99724.84;;;22.34;36.31
63096;BME280;49184;55.596;37.770;2023-06-22T06:44:16;99677.16;;;22.02;34.95
63096;BME280;49184;55.596;37.770;2023-06-22T06:46:50;99737.34;;;22.51;34.82
63096;BME280;49184;55.596;37.770;2023-06-22T06:49:16;99723.75;;;22.42;33.75
63096;BME280;49184;55.596;37.770;2023-06-22T06:51:42;99743.16;;;22.76;35.23
63096;BME280;49184;55.596;37.770;2023-06-22T06:54:07;99726.00;;;22.74;34.15
63096;BME280;49184;55.596;37.770;2023-06-22T06:59:23;99714.59;;;22.90;35.02
63096;BME280;49184;55.596;37.770;2023-06-22T07:01:49;99726.72;;;23.05;35.17
63096;BME280;49184;55.596;37.770;2023-06-22T07:04:15;99720.69;;;23.03;33.38
63096;BME280;49184;55.596;37.770;2023-06-22T07:06:41;99729.59;;;23.23;33.10
63096;BME280;49184;55.596;37.770;2023-06-22T07:09:08;99705.28;;;23.23;34.16
63096;BME280;49184;55.596;37.770;2023-06-22T07:11:34;99718.13;;;23.31;33.29
63096;BME280;49184;55.596;37.770;2023-06-22T07:14:01;99733.41;;;23.55;33.70
63096;BME280;49184;55.596;37.770;2023-06-22T07:16:27;99717.38;;;23.45;32.50
63096;BME280;49184;55.596;37.770;2023-06-22T07:19:28;99721.47;;;23.62;34.14
63096;BME280;49184;55.596;37.770;2023-06-22T07:21:55;99719.88;;;23.64;31.12
63096;BME280;49184;55.596;37.770;2023-06-22T07:24:21;99691.56;;;23.62;32.05
63096;BME280;49184;55.596;37.770;2023-06-22T07:26:47;99722.03;;;23.96;32.50
63096;BME280;49184;55.596;37.770;2023-06-22T07:29:19;99717.16;;;23.75;31.11
63096;BME280;49184;55.596;37.770;2023-06-22T07:31:50;99716.75;;;23.77;30.55
63096;BME280;49184;55.596;37.770;2023-06-22T07:34:23;99721.22;;;23.88;32.96
63096;BME280;49184;55.596;37.770;2023-06-22T07:36:51;99715.25;;;23.97;32.42
63096;BME280;49184;55.596;37.770;2023-06-22T07:39:17;99704.03;;;23.90;32.43
63096;BME280;49184;55.596;37.770;2023-06-22T07:41:43;99699.69;;;23.96;31.94
63096;BME280;49184;55.596;37.770;2023-06-22T07:44:09;99727.28;;;24.23;32.08
63096;BME280;49184;55.596;37.770;2023-06-22T07:46:35;99710.50;;;24.08;33.19
63096;BME280;49184;55.596;37.770;2023-06-22T07:49:02;99689.31;;;24.00;31.11
63096;BME280;49184;55.596;37.770;2023-06-22T07:51:37;99710.53;;;24.19;30.96
63096;BME280;49184;55.596;37.770;2023-06-22T07:54:19;99675.69;;;23.77;32.00
63096;BME280;49184;55.596;37.770;2023-06-22T07:56:46;99700.88;;;23.88;31.73
63096;BME280;49184;55.596;37.770;2023-06-22T07:59:12;99710.47;;;23.94;32.19
63096;BME280;49184;55.596;37.770;2023-06-22T08:01:41;99716.88;;;24.05;32.95
63096;BME280;49184;55.596;37.770;2023-06-22T08:07:11;99647.47;;;24.07;33.97
63096;BME280;49184;55.596;37.770;2023-06-22T08:09:37;99646.66;;;24.07;33.11
63096;BME280;49184;55.596;37.770;2023-06-22T08:12:04;99681.81;;;24.29;31.74
63096;BME280;49184;55.596;37.770;2023-06-22T08:14:37;99674.56;;;24.00;31.84
63096;BME280;49184;55.596;37.770;2023-06-22T08:17:05;99676.91;;;23.90;32.34
63096;BME280;49184;55.596;37.770;2023-06-22T08:19:33;99702.94;;;24.23;32.65
63096;BME280;49184;55.596;37.770;2023-06-22T08:21:59;99681.00;;;24.14;32.89
63096;BME280;49184;55.596;37.770;2023-06-22T08:24:27;99685.75;;;24.07;31.71
63096;BME280;49184;55.596;37.770;2023-06-22T08:26:57;99685.75;;;24.10;33.35
63096;BME280;49184;55.596;37.770;2023-06-22T08:29:23;99695.78;;;24.26;32.27
63096;BME280;49184;55.596;37.770;2023-06-22T08:32:13;99689.41;;;24.36;32.94
63096;BME280;49184;55.596;37.770;2023-06-22T08:34:43;99661.03;;;24.12;31.38
63096;BME280;49184;55.596;37.770;2023-06-22T08:37:09;99675.81;;;24.24;30.89
63096;BME280;49184;55.596;37.770;2023-06-22T08:39:38;99667.50;;;24.42;31.26
63096;BME280;49184;55.596;37.770;2023-06-22T08:42:09;99623.91;;;24.33;31.09
63096;BME280;49184;55.596;37.770;2023-06-22T08:44:35;99653.50;;;24.52;31.62
63096;BME280;49184;55.596;37.770;2023-06-22T08:47:13;99675.84;;;24.67;31.34
63096;BME280;49184;55.596;37.770;2023-06-22T08:49:39;99626.72;;;24.23;30.98
63096;BME280;49184;55.596;37.770;2023-06-22T08:52:05;99640.31;;;24.35;31.79
63096;BME280;49184;55.596;37.770;2023-06-22T08:54:32;99667.88;;;24.61;30.98
63096;BME280;49184;55.596;37.770;2023-06-22T08:57:01;99683.06;;;24.75;31.49
63096;BME280;49184;55.596;37.770;2023-06-22T08:59:56;99650.72;;;24.52;30.85
63096;BME280;49184;55.596;37.770;2023-06-22T09:02:27;99671.88;;;24.71;31.11
63096;BME280;49184;55.596;37.770;2023-06-22T09:04:57;99624.78;;;24.41;30.03
63096;BME280;49184;55.596;37.770;2023-06-22T09:10:27;99613.19;;;24.57;31.68
63096;BME280;49184;55.596;37.770;2023-06-22T09:12:55;99635.94;;;24.55;30.93
63096;BME280;49184;55.596;37.770;2023-06-22T09:15:21;99651.53;;;24.67;30.21
63096;BME280;49184;55.596;37.770;2023-06-22T09:17:47;99618.78;;;24.57;31.18
63096;BME280;49184;55.596;37.770;2023-06-22T09:20:14;99634.72;;;24.78;31.83
63096;BME280;49184;55.596;37.770;2023-06-22T09:22:40;99659.06;;;25.02;29.76
63096;BME280;49184;55.596;37.770;2023-06-22T09:25:07;99659.06;;;24.99;30.17
63096;BME280;49184;55.596;37.770;2023-06-22T09:27:45;99625.94;;;24.79;30.16
63096;BME280;49184;55.596;37.770;2023-06-22T09:30:11;99580.03;;;24.55;30.68
63096;BME280;49184;55.596;37.770;2023-06-22T09:32:39;99602.72;;;24.93;30.97
63096;BME280;49184;55.596;37.770;2023-06-22T09:35:30;99618.69;;;25.14;30.67
63096;BME280;49184;55.596;37.770;2023-06-22T09:37:57;99603.53;;;25.01;29.70
63096;BME280;49184;55.596;37.770;2023-06-22T09:40:42;99632.69;;;25.00;27.72
63096;BME280;49184;55.596;37.770;2023-06-22T09:43:11;99634.31;;;24.97;29.05
63096;BME280;49184;55.596;37.770;2023-06-22T09:45:38;99606.72;;;24.92;30.75
63096;BME280;49184;55.596;37.770;2023-06-22T09:48:05;99613.09;;;25.14;30.22
63096;BME280;49184;55.596;37.770;2023-06-22T09:50:36;99627.84;;;25.25;27.36
63096;BME280;49184;55.596;37.770;2023-06-22T09:53:07;99629.44;;;25.23;28.83
63096;BME280;49184;55.596;37.770;2023-06-22T09:55:34;99605.47;;;25.22;29.74
63096;BME280;49184;55.596;37.770;2023-06-22T09:58:00;99589.13;;;25.17;31.03
63096;BME280;49184;55.596;37.770;2023-06-22T10:00:28;99613.81;;;25.36;29.01
63096;BME280;49184;55.596;37.770;2023-06-22T10:02:54;99613.78;;;25.50;29.42
63096;BME280;49184;55.596;37.770;2023-06-22T10:05:24;99592.97;;;25.48;29.64
63096;BME280;49184;55.596;37.770;2023-06-22T10:07:54;99625.66;;;25.69;28.23
63096;BME280;49184;55.596;37.770;2023-06-22T10:10:20;99612.88;;;25.68;27.49
63096;BME280;49184;55.596;37.770;2023-06-22T10:12:46;99616.56;;;25.50;27.79
63096;BME280;49184;55.596;37.770;2023-06-22T10:15:14;99585.06;;;25.28;28.09
63096;BME280;49184;55.596;37.770;2023-06-22T10:17:47;99608.94;;;25.54;28.25
63096;BME280;49184;55.596;37.770;2023-06-22T10:20:13;99608.53;;;25.60;27.76
63096;BME280;49184;55.596;37.770;2023-06-22T10:22:44;99589.03;;;25.35;28.18
63096;BME280;49184;55.596;37.770;2023-06-22T10:25:11;99573.06;;;25.31;29.73
63096;BME280;49184;55.596;37.770;2023-06-22T10:27:37;99594.19;;;25.50;29.64
63096;BME280;49184;55.596;37.770;2023-06-22T10:30:08;99581.72;;;25.59;28.59
63096;BME280;49184;55.596;37.770;2023-06-22T10:32:35;99595.13;;;25.92;30.70
63096;BME280;49184;55.596;37.770;2023-06-22T10:35:01;99589.81;;;26.09;30.37
63096;BME280;49184;55.596;37.770;2023-06-22T10:37:29;99566.59;;;26.12;29.43
63096;BME280;49184;55.596;37.770;2023-06-22T10:39:55;99564.13;;;26.21;26.60
63096;BME280;49184;55.596;37.770;2023-06-22T10:42:21;99570.19;;;26.16;27.93
63096;BME280;49184;55.596;37.770;2023-06-22T10:44:47;99554.13;;;26.20;27.83
63096;BME280;49184;55.596;37.770;2023-06-22T10:47:15;99556.03;;;26.30;27.50
63096;BME280;49184;55.596;37.770;2023-06-22T10:49:42;99564.22;;;26.10;26.27
63096;BME280;49184;55.596;37.770;2023-06-22T10:52:08;99556.25;;;26.01;27.68
63096;BME280;49184;55.596;37.770;2023-06-22T10:54:35;99563.44;;;26.02;27.17
63096;BME280;49184;55.596;37.770;2023-06-22T10:57:04;99571.63;;;26.31;28.84
63096;BME280;49184;55.596;37.770;2023-06-22T10:59:30;99547.50;;;26.44;29.04
63096;BME280;49184;55.596;37.770;2023-06-22T11:01:56;99552.84;;;26.73;29.73
63096;BME280;49184;55.596;37.770;2023-06-22T11:04:23;99557.75;;;26.62;26.36
63096;BME280;49184;55.596;37.770;2023-06-22T11:06:49;99555.78;;;26.59;26.60
63096;BME280;49184;55.596;37.770;2023-06-22T11:09:17;99549.91;;;26.50;25.89
63096;BME280;49184;55.596;37.770;2023-06-22T11:11:49;99536.78;;;26.32;27.06
63096;BME280;49184;55.596;37.770;2023-06-22T11:14:17;99539.09;;;26.44;27.43
63096;BME280;49184;55.596;37.770;2023-06-22T11:16:43;99528.13;;;26.61;28.09
63096;BME280;49184;55.596;37.770;2023-06-22T11:19:09;99513.91;;;26.79;27.79
63096;BME280;49184;55.596;37.770;2023-06-22T11:21:35;99540.09;;;27.03;27.74
63096;BME280;49184;55.596;37.770;2023-06-22T11:24:01;99548.22;;;26.93;27.13
63096;BME280;49184;55.596;37.770;2023-06-22T11:26:27;99530.38;;;26.77;27.12
63096;BME280;49184;55.596;37.770;2023-06-22T11:28:53;99547.56;;;26.82;27.58
63096;BME280;49184;55.596;37.770;2023-06-22T11:31:22;99539.94;;;26.83;26.18
63096;BME280;49184;55.596;37.770;2023-06-22T11:33:47;99537.13;;;26.83;26.84
63096;BME280;49184;55.596;37.770;2023-06-22T11:36:14;99533.81;;;26.91;27.38
63096;BME280;49184;55.596;37.770;2023-06-22T11:38:40;99535.97;;;26.77;27.46
63096;BME280;49184;55.596;37.770;2023-06-22T11:41:07;99509.72;;;26.60;27.98
63096;BME280;49184;55.596;37.770;2023-06-22T11:43:34;99517.66;;;26.65;28.29
63096;BME280;49184;55.596;37.770;2023-06-22T11:46:05;99516.13;;;26.60;28.58
63096;BME280;49184;55.596;37.770;2023-06-22T11:48:31;99519.63;;;27.06;29.92
63096;BME280;49184;55.596;37.770;2023-06-22T11:50:57;99469.16;;;27.02;29.14
63096;BME280;49184;55.596;37.770;2023-06-22T11:53:24;99522.91;;;27.62;28.31
63096;BME280;49184;55.596;37.770;2023-06-22T11:55:51;99501.41;;;27.79;28.50
63096;BME280;49184;55.596;37.770;2023-06-22T11:58:19;99492.78;;;27.90;26.84
63096;BME280;49184;55.596;37.770;2023-06-22T12:00:45;99474.50;;;27.51;27.81
63096;BME280;49184;55.596;37.770;2023-06-22T12:03:13;99506.44;;;27.87;27.08
63096;BME280;49184;55.596;37.770;2023-06-22T12:05:42;99465.41;;;27.94;27.98
63096;BME280;49184;55.596;37.770;2023-06-22T12:08:10;99463.72;;;28.00;26.53
63096;BME280;49184;55.596;37.770;2023-06-22T12:10:42;99453.91;;;28.31;28.81
63096;BME280;49184;55.596;37.770;2023-06-22T12:13:08;99486.72;;;28.82;27.20
63096;BME280;49184;55.596;37.770;2023-06-22T12:15:34;99457.28;;;28.66;26.89
63096;BME280;49184;55.596;37.770;2023-06-22T12:18:01;99434.69;;;28.70;27.77
63096;BME280;49184;55.596;37.770;2023-06-22T12:20:28;99448.34;;;28.71;26.96
63096;BME280;49184;55.596;37.770;2023-06-22T12:22:55;99457.03;;;28.77;25.03
63096;BME280;49184;55.596;37.770;2023-06-22T12:25:26;99450.84;;;28.86;26.25
63096;BME280;49184;55.596;37.770;2023-06-22T12:27:52;99465.63;;;29.10;26.74
63096;BME280;49184;55.596;37.770;2023-06-22T12:30:20;99442.06;;;29.20;25.39
63096;BME280;49184;55.596;37.770;2023-06-22T12:32:46;99429.91;;;28.87;24.60
63096;BME280;49184;55.596;37.770;2023-06-22T12:35:13;99427.19;;;28.63;25.71
63096;BME280;49184;55.596;37.770;2023-06-22T12:37:43;99465.91;;;28.12;25.47
63096;BME280;49184;55.596;37.770;2023-06-22T12:40:10;99453.94;;;27.84;26.05
63096;BME280;49184;55.596;37.770;2023-06-22T12:42:36;99449.66;;;27.76;27.39
63096;BME280;49184;55.596;37.770;2023-06-22T12:45:02;99424.34;;;27.53;27.01
63096;BME280;49184;55.596;37.770;2023-06-22T12:47:29;99429.59;;;27.74;27.99
63096;BME280;49184;55.596;37.770;2023-06-22T12:49:55;99422.59;;;27.86;27.88
63096;BME280;49184;55.596;37.770;2023-06-22T12:52:22;99438.75;;;28.25;28.07
63096;BME280;49184;55.596;37.770;2023-06-22T12:54:48;99411.47;;;28.02;28.26
63096;BME280;49184;55.596;37.770;2023-06-22T12:57:14;99406.59;;;27.83;28.44
63096;BME280;49184;55.596;37.770;2023-06-22T12:59:40;99409.69;;;28.12;28.49
63096;BME280;49184;55.596;37.770;2023-06-22T13:02:09;99429.28;;;28.59;27.35
63096;BME280;49184;55.596;37.770;2023-06-22T13:04:36;99411.69;;;28.75;28.50
63096;BME280;49184;55.596;37.770;2023-06-22T13:07:02;99419.53;;;28.44;27.85
63096;BME280;49184;55.596;37.770;2023-06-22T13:09:29;99414.59;;;28.08;28.60
63096;BME280;49184;55.596;37.770;2023-06-22T13:11:55;99403.16;;;27.72;28.19
63096;BME280;49184;55.596;37.770;2023-06-22T13:14:22;99390.63;;;27.53;28.47
63096;BME280;49184;55.596;37.770;2023-06-22T13:16:51;99404.31;;;27.51;28.32
63096;BME280;49184;55.596;37.770;2023-06-22T13:19:17;99401.88;;;27.53;28.97
63096;BME280;49184;55.596;37.770;2023-06-22T13:21:44;99398.47;;;27.38;28.67
63096;BME280;49184;55.596;37.770;2023-06-22T13:24:12;99400.03;;;27.43;27.89
63096;BME280;49184;55.596;37.770;2023-06-22T13:26:38;99411.59;;;27.72;28.54
63096;BME280;49184;55.596;37.770;2023-06-22T13:29:07;99415.00;;;28.06;26.90
63096;BME280;49184;55.596;37.770;2023-06-22T13:31:33;99392.25;;;28.21;28.37
63096;BME280;49184;55.596;37.770;2023-06-22T13:33:59;99403.28;;;28.55;27.34
63096;BME280;49184;55.596;37.770;2023-06-22T13:36:25;99396.38;;;28.36;27.05